This is the latest recevied weather packets stored in our database for station/object AC2JK-WX. If no packets are shown the sender has not sent any weather packets the latest 1 day(s).
| Time | Temp. | Humidity | Pressure | Rain* | Wind** | Luminosity | Snow |
|---|---|---|---|---|---|---|---|
| 1836274804 | 12.78° C | 69% | 1023 hPa | 0 mm | 0 m/s | - | - |
| 1836274504 | 13.33° C | 69% | 1023 hPa | 0 mm | 0 m/s | - | - |
| 1836274354 | 12.78° C | 70% | 1023 hPa | 0 mm | 0 m/s | - | - |
| 1836274204 | 13.33° C | 68% | 1023 hPa | 0 mm | 0 m/s | - | - |
| 1836273903 | 13.33° C | 70% | 1023 hPa | 0 mm | 0 m/s | - | - |
| 1778054829 | 8.89° C | 99% | 1008 hPa | 1.27 mm | 0.45 m/s, 245° | - | - |
| 1778054530 | 8.89° C | 99% | 1008 hPa | 1.27 mm | 0.45 m/s, 245° | - | - |
| 1778054230 | 8.89° C | 98% | 1008 hPa | 1.02 mm | 0 m/s | - | - |
| 1778053930 | 9.44° C | 99% | 1008 hPa | 1.27 mm | 0.45 m/s, 245° | - | - |
| 1778053629 | 9.44° C | 99% | 1008 hPa | 1.27 mm | 0 m/s | - | - |
| 1778053329 | 9.44° C | 98% | 1009 hPa | 1.27 mm | 0.45 m/s, 245° | - | - |
| 1778053030 | 9.44° C | 99% | 1009 hPa | 1.27 mm | 0 m/s | - | - |
| 1778052730 | 9.44° C | 98% | 1009 hPa | 1.27 mm | 0 m/s | - | - |
| 1778052429 | 9.44° C | 98% | 1009 hPa | 1.27 mm | 0 m/s | - | - |
| 1778052129 | 9.44° C | 98% | 1008 hPa | 1.27 mm | 0 m/s | - | - |
| 1778051830 | 9.44° C | 98% | 1009 hPa | 1.27 mm | 0 m/s | - | - |
| 1778051530 | 9.44° C | 98% | 1009 hPa | 1.27 mm | 0.89 m/s, 245° | - | - |
| 1778051229 | 9.44° C | 98% | 1009 hPa | 1.27 mm | 0 m/s | - | - |
| 1778050930 | 9.44° C | 98% | 1009 hPa | 1.02 mm | 0 m/s | - | - |
| 1778050629 | 9.44° C | 98% | 1009 hPa | 1.27 mm | 0 m/s | - | - |
| 1778050329 | 9.44° C | 98% | 1009 hPa | 1.02 mm | 0 m/s | - | - |
| 1778050029 | 9.44° C | 98% | 1009 hPa | 1.02 mm | 0 m/s | - | - |
| 1778049730 | 9.44° C | 98% | 1009 hPa | 0.76 mm | 0 m/s | - | - |
| 1778049430 | 9.44° C | 98% | 1009 hPa | 1.02 mm | 0 m/s | - | - |
| 1778049129 | 9.44° C | 98% | 1009 hPa | 0.76 mm | 0 m/s | - | - |
* Rain latest hour (hover to see other rain measurements)
** Current wind speed in m/s (hover to see current wind gust speed)